»·PEaware :: N829K KAVX-KSAN

N829K :: KAVX-KSAN

FLIGHT INFORMATION

Flight Status: Arrived
Operator: Privately registered:
United States
More flights under this callsign
Pilot: John W. (18910)
Aircraft: BEECH AIRCRAFT BONANZA
(BE35)
More flights by this aircraft type
Origin: KAVX Catalina
United States
Destination: KSAN San Diego Intl-Lindbergh
United States
More flights between these airports :: More routes between these airports
Route: SXC V208 OCN V23 MZB
File this flight plan on PilotEdge
Remarks: I-8 rating
Altitude:
(Current/Filed)
5,000ft
Speed:
(Current/Filed)
180kts
Departed: 13-May-18 04:11 PM
Arrived: 13-May-18 04:59 PM
Distance/Time
Traveled:
74nm/0:48
Distance/Time
To Go:
Arrived

Flight Plot

Page will automatically refresh every two minutes.


Map Options




Map Legend


Flown Route
Filed Route
Departure Airport
Arrival Airport
Navaid (VOR, NDB)
Fix

Horizontal Profiles

Position Reports

Time Latitude Longitude Heading Altitude Ground
Speed
13-May-18 15:44 33.403346 -118.416298 27 1570ft 0kts
13-May-18 15:45 33.403346 -118.416298 27 1570ft 0kts
13-May-18 15:46 33.403346 -118.416298 27 1570ft 0kts
13-May-18 15:47 33.403346 -118.416298 27 1570ft 0kts
13-May-18 15:48 33.403346 -118.416298 27 1570ft 0kts
13-May-18 15:49 33.403346 -118.416298 27 1570ft 0kts
13-May-18 15:50 33.403346 -118.416298 27 1570ft 0kts
13-May-18 15:51 33.403346 -118.416298 27 1570ft 0kts
13-May-18 15:52 33.403346 -118.416298 27 1570ft 0kts
13-May-18 15:53 33.403346 -118.416298 27 1570ft 0kts
13-May-18 15:54 33.403382 -118.416271 28 1570ft 0kts
13-May-18 15:55 33.403382 -118.416271 28 1570ft 0kts
13-May-18 15:56 33.403408 -118.416249 35 1570ft 0kts
13-May-18 15:57 33.403737 -118.415330 44 1570ft 8kts
13-May-18 15:58 33.404088 -118.415088 18 1570ft 0kts
13-May-18 15:59 33.404432 -118.415076 346 1570ft 8kts
13-May-18 16:00 33.404571 -118.415105 340 1570ft 0kts
13-May-18 16:01 33.404571 -118.415105 340 1570ft 0kts
13-May-18 16:02 33.404571 -118.415105 340 1570ft 0kts
13-May-18 16:03 33.404571 -118.415105 340 1570ft 0kts
13-May-18 16:04 33.404571 -118.415105 340 1570ft 0kts
13-May-18 16:05 33.404571 -118.415105 340 1570ft 0kts
13-May-18 16:06 33.404571 -118.415105 340 1570ft 0kts
13-May-18 16:07 33.404571 -118.415105 340 1570ft 0kts
13-May-18 16:08 33.404571 -118.415105 340 1570ft 0kts
13-May-18 16:09 33.404753 -118.415143 3 1570ft 6kts
13-May-18 16:10 33.407367 -118.411597 254 1570ft 0kts
13-May-18 16:11 33.402113 -118.421248 243 1708ft 89kts
13-May-18 16:12 33.388025 -118.442774 190 3117ft 92kts
13-May-18 16:13 33.362096 -118.433163 144 4373ft 106kts
13-May-18 16:14 33.357289 -118.398834 77 4933ft 141kts
13-May-18 16:15 33.362552 -118.356560 82 4963ft 140kts
13-May-18 16:16 33.364893 -118.312113 100 4959ft 136kts
13-May-18 16:17 33.358358 -118.268201 99 5018ft 134kts
13-May-18 16:18 33.353046 -118.212844 94 5022ft 186kts
13-May-18 16:19 33.348660 -118.150857 94 5009ft 184kts
13-May-18 16:20 33.343990 -118.091079 94 5052ft 177kts
13-May-18 16:21 33.338602 -118.032680 95 5057ft 186kts
13-May-18 16:22 33.332930 -117.970631 95 5054ft 183kts
13-May-18 16:23 33.326222 -117.911715 98 5020ft 176kts
13-May-18 16:24 33.319599 -117.854404 98 5020ft 173kts
13-May-18 16:25 33.312993 -117.797608 98 5038ft 172kts
13-May-18 16:26 33.305728 -117.743275 98 5040ft 185kts
13-May-18 16:27 33.297857 -117.683353 98 5038ft 180kts
13-May-18 16:28 33.290177 -117.624454 98 5039ft 178kts
13-May-18 16:29 33.282559 -117.566012 98 5039ft 178kts
13-May-18 16:30 33.274910 -117.507289 98 5039ft 178kts
13-May-18 16:31 33.267284 -117.448709 98 5012ft 180kts
13-May-18 16:32 33.241819 -117.406769 169 4998ft 173kts
13-May-18 16:33 33.194922 -117.396262 168 4993ft 172kts
13-May-18 16:34 33.149709 -117.377616 162 4994ft 172kts
13-May-18 16:35 33.104767 -117.358323 162 4993ft 172kts
13-May-18 16:36 33.060234 -117.339331 163 4991ft 172kts
13-May-18 16:37 33.015229 -117.320116 163 4991ft 172kts
13-May-18 16:38 32.970444 -117.300986 163 4991ft 172kts
13-May-18 16:39 32.924418 -117.281320 163 5001ft 179kts
13-May-18 16:40 32.878944 -117.261553 163 5000ft 178kts
13-May-18 16:41 32.833043 -117.241318 163 4999ft 173kts
13-May-18 16:42 32.788415 -117.221342 163 5000ft 171kts
13-May-18 16:43 32.763929 -117.177319 102 5001ft 178kts
13-May-18 16:44 32.754157 -117.119660 102 5001ft 178kts
13-May-18 16:45 32.744366 -117.061986 102 5019ft 177kts
13-May-18 16:46 32.734466 -117.004679 102 4992ft 178kts
13-May-18 16:47 32.724651 -116.946820 102 4992ft 178kts
13-May-18 16:48 32.714620 -116.889128 102 4983ft 177kts
13-May-18 16:49 32.684915 -116.858255 190 4984ft 165kts
13-May-18 16:50 32.656695 -116.888499 260 4984ft 156kts
13-May-18 16:51 32.659480 -116.937612 301 4984ft 157kts
13-May-18 16:52 32.682694 -116.979433 297 4464ft 140kts
13-May-18 16:53 32.692588 -117.021184 281 3636ft 129kts
13-May-18 16:54 32.702628 -117.062363 288 2749ft 128kts
13-May-18 16:55 32.710664 -117.094314 283 2059ft 76kts
13-May-18 16:56 32.716049 -117.119043 288 1428ft 78kts
13-May-18 16:57 32.722425 -117.143781 288 858ft 81kts
13-May-18 16:58 32.728565 -117.168853 284 310ft 75kts
13-May-18 16:59 32.732601 -117.184496 12 16ft 2kts
13-May-18 17:00 32.732802 -117.181730 108 17ft 27kts
13-May-18 17:01 32.732375 -117.177677 105 20ft 0kts

Navigation Log

Ident Type
1. KAVX Airport
2. SXC Navaid
3. AVOLS Fix
4. PACIF Fix
5. HUBRD Fix
6. OCN Navaid
7. HURSI Fix
8. CARIF Fix
9. MZB Navaid
10. KSAN Airport